Cabin John, Maryland
Current Conditions -  °F | °C
As of 7:52 PM on Friday 24 Oct 2014 (Local Time) from KDCA Reporting Station
Broken Clouds Broken Clouds  
Wind Chill: 64°   Ceiling: 25000
Heat Index: 64°   Visibility: 10mi
Dew Point: 36°   Wind: 10mph
Humidity: 35%   Direction: 300°WNW
Pressure: 29.94"   Gusts: NA
Location:  38.98°N, 77.16°W
Report Text: KDCA 242352Z 30009KT 10SM FEW120 BKN250 18/02 A2994 RMK AO2 SLP137 T01780022 10217 20178 53013
Loading
Personal Weather Stations






























Interactive Weather Map
Tropical Storm Tracking
New forecast layout! Learn more

10-Day Weather Forecast

Advertisements
Track Severe Weather on mobile